Time;durP1;ratioP1;P1;durP2;ratioP2;P2;SDS_P1;SDS_P2;PMS_P1;PMS_P2;Temp;Humidity;BMP_temperature;BMP_pressure;BME280_temperature;BME280_humidity;BME280_pressure;Samples;Min_cycle;Max_cycle;Signal;HPM_P1;HPM_P2
2024/03/31 00:02:11;;;;;;;14.8;2.7;;;;;;;;;;;;;
2024/03/31 00:04:37;;;;;;;16.7;3;;;;;;;;;;;;;
2024/03/31 00:07:02;;;;;;;14.3;2.9;;;;;;;;;;;;;
2024/03/31 00:09:27;;;;;;;14;2.7;;;;;;;;;;;;;
2024/03/31 00:11:54;;;;;;;11.5;2.9;;;;;;;;;;;;;
2024/03/31 00:14:17;;;;;;;14.3;3.1;;;;;;;;;;;;;
2024/03/31 00:16:42;;;;;;;15.2;3.3;;;;;;;;;;;;;
2024/03/31 00:19:07;;;;;;;16.7;3.6;;;;;;;;;;;;;
2024/03/31 00:21:32;;;;;;;25.1;4.3;;;;;;;;;;;;;
2024/03/31 00:23:58;;;;;;;25.8;5.3;;;;;;;;;;;;;
2024/03/31 00:26:24;;;;;;;27;5.5;;;;;;;;;;;;;
2024/03/31 00:28:48;;;;;;;22.6;4.8;;;;;;;;;;;;;
2024/03/31 00:31:12;;;;;;;25.9;4.5;;;;;;;;;;;;;
2024/03/31 00:33:37;;;;;;;26.6;5.1;;;;;;;;;;;;;
2024/03/31 00:36:05;;;;;;;21.9;5.1;;;;;;;;;;;;;
2024/03/31 00:38:28;;;;;;;30.5;5.8;;;;;;;;;;;;;
2024/03/31 00:40:53;;;;;;;28.4;5.2;;;;;;;;;;;;;
2024/03/31 00:43:18;;;;;;;25.1;4.2;;;;;;;;;;;;;
2024/03/31 00:45:43;;;;;;;28.3;4.6;;;;;;;;;;;;;
2024/03/31 00:48:08;;;;;;;22.7;4.7;;;;;;;;;;;;;
2024/03/31 00:50:33;;;;;;;20.2;5.4;;;;;;;;;;;;;
2024/03/31 00:52:59;;;;;;;20.3;4;;;;;;;;;;;;;
2024/03/31 00:55:23;;;;;;;22.1;4.9;;;;;;;;;;;;;
2024/03/31 00:57:49;;;;;;;21.5;4.5;;;;;;;;;;;;;
2024/03/31 01:00:14;;;;;;;26.5;4.2;;;;;;;;;;;;;
2024/03/31 01:02:39;;;;;;;18.2;4.3;;;;;;;;;;;;;
2024/03/31 01:05:04;;;;;;;20.9;4.1;;;;;;;;;;;;;
2024/03/31 01:07:29;;;;;;;16.2;3.7;;;;;;;;;;;;;
2024/03/31 01:09:54;;;;;;;20.2;3.9;;;;;;;;;;;;;
2024/03/31 01:12:19;;;;;;;17.3;4.4;;;;;;;;;;;;;
2024/03/31 01:14:44;;;;;;;24.2;5.1;;;;;;;;;;;;;
2024/03/31 01:17:09;;;;;;;28.6;4.9;;;;;;;;;;;;;
2024/03/31 01:19:34;;;;;;;28;4.7;;;;;;;;;;;;;
2024/03/31 01:21:59;;;;;;;22.9;5.2;;;;;;;;;;;;;
2024/03/31 01:24:24;;;;;;;22.6;4.9;;;;;;;;;;;;;
2024/03/31 01:26:49;;;;;;;22.1;4.4;;;;;;;;;;;;;
2024/03/31 01:29:15;;;;;;;22;5.2;;;;;;;;;;;;;
2024/03/31 01:31:40;;;;;;;28.1;5.3;;;;;;;;;;;;;
2024/03/31 01:34:05;;;;;;;21.1;3.9;;;;;;;;;;;;;
2024/03/31 01:36:30;;;;;;;22.5;4.5;;;;;;;;;;;;;
2024/03/31 01:38:55;;;;;;;22.8;4.8;;;;;;;;;;;;;
2024/03/31 01:41:20;;;;;;;19.6;4.4;;;;;;;;;;;;;
2024/03/31 01:43:45;;;;;;;20;5.1;;;;;;;;;;;;;
2024/03/31 01:46:10;;;;;;;23.2;4.3;;;;;;;;;;;;;
2024/03/31 01:48:35;;;;;;;23.3;4.3;;;;;;;;;;;;;
2024/03/31 01:51:00;;;;;;;23.1;4.7;;;;;;;;;;;;;
2024/03/31 01:53:26;;;;;;;22.5;5;;;;;;;;;;;;;
2024/03/31 01:55:50;;;;;;;26;5;;;;;;;;;;;;;
2024/03/31 01:58:15;;;;;;;28;5;;;;;;;;;;;;;
2024/03/31 02:00:40;;;;;;;25.9;4.9;;;;;;;;;;;;;
2024/03/31 02:03:06;;;;;;;30.3;5.4;;;;;;;;;;;;;
2024/03/31 02:05:31;;;;;;;28.3;5.2;;;;;;;;;;;;;
2024/03/31 02:07:56;;;;;;;23;4.7;;;;;;;;;;;;;
2024/03/31 02:10:21;;;;;;;33.2;5.5;;;;;;;;;;;;;
2024/03/31 02:12:46;;;;;;;21.9;5.1;;;;;;;;;;;;;
2024/03/31 02:15:11;;;;;;;28.5;6.3;;;;;;;;;;;;;
2024/03/31 02:17:36;;;;;;;30.6;5.3;;;;;;;;;;;;;
2024/03/31 02:20:01;;;;;;;26.6;5.3;;;;;;;;;;;;;
2024/03/31 02:22:26;;;;;;;26.5;5.4;;;;;;;;;;;;;
2024/03/31 02:24:51;;;;;;;28.3;5.5;;;;;;;;;;;;;
2024/03/31 02:27:16;;;;;;;23.9;4.8;;;;;;;;;;;;;
2024/03/31 02:29:41;;;;;;;23.5;5.4;;;;;;;;;;;;;
2024/03/31 02:32:38;;;;;;;29.5;5.5;;;;;;;;;;;;;
2024/03/31 02:35:10;;;;;;;25.9;5.5;;;;;;;;;;;;;
2024/03/31 02:37:35;;;;;;;26.6;5.8;;;;;;;;;;;;;
2024/03/31 02:40:00;;;;;;;26;5.4;;;;;;;;;;;;;
2024/03/31 02:42:25;;;;;;;27.6;4.8;;;;;;;;;;;;;
2024/03/31 02:44:50;;;;;;;31.1;5;;;;;;;;;;;;;
2024/03/31 02:47:15;;;;;;;27.5;5.1;;;;;;;;;;;;;
2024/03/31 02:49:40;;;;;;;27.5;5.4;;;;;;;;;;;;;
2024/03/31 02:52:05;;;;;;;25.2;4.3;;;;;;;;;;;;;
2024/03/31 02:54:31;;;;;;;28.5;5.3;;;;;;;;;;;;;
2024/03/31 02:56:56;;;;;;;28.7;5;;;;;;;;;;;;;
2024/03/31 02:59:21;;;;;;;21.5;4.8;;;;;;;;;;;;;
2024/03/31 03:01:46;;;;;;;22.5;4.6;;;;;;;;;;;;;
2024/03/31 03:04:11;;;;;;;27.4;5.1;;;;;;;;;;;;;
2024/03/31 03:06:36;;;;;;;30;4.9;;;;;;;;;;;;;
2024/03/31 03:09:03;;;;;;;25.4;5.4;;;;;;;;;;;;;
2024/03/31 03:11:26;;;;;;;29;4.9;;;;;;;;;;;;;
2024/03/31 03:13:52;;;;;;;26.4;5;;;;;;;;;;;;;
2024/03/31 03:16:18;;;;;;;22;4.6;;;;;;;;;;;;;
2024/03/31 03:18:42;;;;;;;27.4;5.3;;;;;;;;;;;;;
2024/03/31 03:21:07;;;;;;;24.2;5.5;;;;;;;;;;;;;
2024/03/31 03:23:33;;;;;;;27.7;5.7;;;;;;;;;;;;;
2024/03/31 03:25:57;;;;;;;24.6;5;;;;;;;;;;;;;
2024/03/31 03:28:22;;;;;;;23.7;5.3;;;;;;;;;;;;;
2024/03/31 03:30:48;;;;;;;26.3;5.2;;;;;;;;;;;;;
2024/03/31 03:33:13;;;;;;;23;5;;;;;;;;;;;;;
2024/03/31 03:35:38;;;;;;;18.8;4.5;;;;;;;;;;;;;
2024/03/31 03:38:03;;;;;;;24.8;5;;;;;;;;;;;;;
2024/03/31 03:40:28;;;;;;;27.7;5.4;;;;;;;;;;;;;
2024/03/31 03:42:53;;;;;;;23;4.8;;;;;;;;;;;;;
2024/03/31 03:45:18;;;;;;;22.4;4.5;;;;;;;;;;;;;
2024/03/31 03:47:43;;;;;;;20.4;4.6;;;;;;;;;;;;;
2024/03/31 03:50:08;;;;;;;19.1;4.6;;;;;;;;;;;;;
2024/03/31 03:52:37;;;;;;;21.8;4.6;;;;;;;;;;;;;
2024/03/31 03:54:59;;;;;;;21.9;4.4;;;;;;;;;;;;;
2024/03/31 03:57:24;;;;;;;23.1;4.8;;;;;;;;;;;;;
2024/03/31 03:59:49;;;;;;;20.2;4.8;;;;;;;;;;;;;
2024/03/31 04:02:31;;;;;;;22.5;4.5;;;;;;;;;;;;;
2024/03/31 04:04:56;;;;;;;25.1;4.6;;;;;;;;;;;;;
2024/03/31 04:07:21;;;;;;;21.9;4.6;;;;;;;;;;;;;
2024/03/31 04:09:46;;;;;;;22;4.5;;;;;;;;;;;;;
2024/03/31 04:12:13;;;;;;;19;4.6;;;;;;;;;;;;;
2024/03/31 04:14:36;;;;;;;26.8;5.4;;;;;;;;;;;;;
2024/03/31 04:17:02;;;;;;;25.2;4.9;;;;;;;;;;;;;
2024/03/31 04:19:27;;;;;;;16.3;5.3;;;;;;;;;;;;;
2024/03/31 04:21:52;;;;;;;27.3;4.9;;;;;;;;;;;;;
2024/03/31 04:24:17;;;;;;;20.7;4.7;;;;;;;;;;;;;
2024/03/31 04:26:42;;;;;;;21;4.8;;;;;;;;;;;;;
2024/03/31 04:29:07;;;;;;;19.8;5.1;;;;;;;;;;;;;
2024/03/31 04:31:33;;;;;;;21.3;5.5;;;;;;;;;;;;;
2024/03/31 04:33:57;;;;;;;20.1;5.8;;;;;;;;;;;;;
2024/03/31 04:36:23;;;;;;;22.7;4.4;;;;;;;;;;;;;
2024/03/31 04:38:48;;;;;;;29.6;4.7;;;;;;;;;;;;;
2024/03/31 04:41:13;;;;;;;17.1;4.4;;;;;;;;;;;;;
2024/03/31 04:43:38;;;;;;;24.1;5.5;;;;;;;;;;;;;
2024/03/31 04:46:04;;;;;;;18.4;5;;;;;;;;;;;;;
2024/03/31 04:48:28;;;;;;;20.4;4;;;;;;;;;;;;;
2024/03/31 04:50:53;;;;;;;19.5;4.2;;;;;;;;;;;;;
2024/03/31 04:53:18;;;;;;;25.2;4.7;;;;;;;;;;;;;
2024/03/31 04:55:44;;;;;;;22.3;4.8;;;;;;;;;;;;;
2024/03/31 04:58:10;;;;;;;21.4;4.5;;;;;;;;;;;;;
2024/03/31 05:00:34;;;;;;;25.2;4.7;;;;;;;;;;;;;
2024/03/31 05:02:59;;;;;;;21.2;5;;;;;;;;;;;;;
2024/03/31 05:05:24;;;;;;;18.3;4.5;;;;;;;;;;;;;
2024/03/31 05:07:49;;;;;;;19.2;4.4;;;;;;;;;;;;;
2024/03/31 05:10:14;;;;;;;20.5;5.1;;;;;;;;;;;;;
2024/03/31 05:12:39;;;;;;;22.1;5.2;;;;;;;;;;;;;
2024/03/31 05:15:05;;;;;;;25.4;4.8;;;;;;;;;;;;;
2024/03/31 05:17:30;;;;;;;27.7;5.1;;;;;;;;;;;;;
2024/03/31 05:19:55;;;;;;;18.1;4.3;;;;;;;;;;;;;
2024/03/31 05:22:20;;;;;;;21;4.6;;;;;;;;;;;;;
2024/03/31 05:24:45;;;;;;;20.1;4.5;;;;;;;;;;;;;
2024/03/31 05:27:11;;;;;;;17.9;4.3;;;;;;;;;;;;;
2024/03/31 05:29:35;;;;;;;22.7;4.8;;;;;;;;;;;;;
2024/03/31 05:32:00;;;;;;;20.3;4.1;;;;;;;;;;;;;
2024/03/31 05:34:25;;;;;;;20.3;4.3;;;;;;;;;;;;;
2024/03/31 05:36:50;;;;;;;25.6;4.7;;;;;;;;;;;;;
2024/03/31 05:39:16;;;;;;;22.6;5;;;;;;;;;;;;;
2024/03/31 05:41:41;;;;;;;19.7;5.2;;;;;;;;;;;;;
2024/03/31 05:44:06;;;;;;;19.3;4.6;;;;;;;;;;;;;
2024/03/31 05:46:31;;;;;;;19;4.5;;;;;;;;;;;;;
2024/03/31 05:48:56;;;;;;;20;4.3;;;;;;;;;;;;;
2024/03/31 05:51:21;;;;;;;20.7;4.3;;;;;;;;;;;;;
2024/03/31 05:53:46;;;;;;;20.3;4.9;;;;;;;;;;;;;
2024/03/31 05:56:13;;;;;;;18.3;5;;;;;;;;;;;;;
2024/03/31 05:58:37;;;;;;;23.9;4.9;;;;;;;;;;;;;
2024/03/31 06:01:02;;;;;;;21.9;5.9;;;;;;;;;;;;;
2024/03/31 06:03:27;;;;;;;24.3;5;;;;;;;;;;;;;
2024/03/31 06:05:52;;;;;;;21.3;4.9;;;;;;;;;;;;;
2024/03/31 06:08:17;;;;;;;15.3;4.2;;;;;;;;;;;;;
2024/03/31 06:10:42;;;;;;;20.5;4.7;;;;;;;;;;;;;
2024/03/31 06:13:07;;;;;;;23.3;4.8;;;;;;;;;;;;;
2024/03/31 06:15:32;;;;;;;18.7;4.9;;;;;;;;;;;;;
2024/03/31 06:17:57;;;;;;;22.5;5.4;;;;;;;;;;;;;
2024/03/31 06:20:23;;;;;;;22;4.8;;;;;;;;;;;;;
2024/03/31 06:22:48;;;;;;;19.4;5;;;;;;;;;;;;;
2024/03/31 06:25:13;;;;;;;26.3;5.7;;;;;;;;;;;;;
2024/03/31 06:27:38;;;;;;;18;5.7;;;;;;;;;;;;;
2024/03/31 06:30:03;;;;;;;24;6.6;;;;;;;;;;;;;
2024/03/31 06:32:28;;;;;;;21.6;6.6;;;;;;;;;;;;;
2024/03/31 06:34:54;;;;;;;23.3;6.3;;;;;;;;;;;;;
2024/03/31 06:37:19;;;;;;;21.6;6.2;;;;;;;;;;;;;
2024/03/31 06:39:44;;;;;;;23.5;6.4;;;;;;;;;;;;;
2024/03/31 06:42:09;;;;;;;23.7;5.1;;;;;;;;;;;;;
2024/03/31 06:44:34;;;;;;;25.4;5.5;;;;;;;;;;;;;
2024/03/31 06:46:59;;;;;;;24.7;4.9;;;;;;;;;;;;;
2024/03/31 06:49:24;;;;;;;25.2;5;;;;;;;;;;;;;
2024/03/31 06:51:49;;;;;;;24;4.9;;;;;;;;;;;;;
2024/03/31 06:54:15;;;;;;;31.3;5.4;;;;;;;;;;;;;
2024/03/31 06:56:40;;;;;;;18.1;5.8;;;;;;;;;;;;;
2024/03/31 06:59:05;;;;;;;26.7;6.1;;;;;;;;;;;;;
2024/03/31 07:01:30;;;;;;;21.8;5.8;;;;;;;;;;;;;
2024/03/31 07:03:55;;;;;;;24.6;5.4;;;;;;;;;;;;;
2024/03/31 07:06:20;;;;;;;21.1;4.8;;;;;;;;;;;;;
2024/03/31 07:08:46;;;;;;;19;4.7;;;;;;;;;;;;;
2024/03/31 07:11:10;;;;;;;20.5;4.6;;;;;;;;;;;;;
2024/03/31 07:13:36;;;;;;;22;4.6;;;;;;;;;;;;;
2024/03/31 07:16:01;;;;;;;18.4;4.3;;;;;;;;;;;;;
2024/03/31 07:18:26;;;;;;;19.3;4.5;;;;;;;;;;;;;
2024/03/31 07:20:51;;;;;;;22.8;4.3;;;;;;;;;;;;;
2024/03/31 07:23:16;;;;;;;18.5;4.1;;;;;;;;;;;;;
2024/03/31 07:25:41;;;;;;;23.8;4.3;;;;;;;;;;;;;
2024/03/31 07:28:06;;;;;;;20.4;4.6;;;;;;;;;;;;;
2024/03/31 07:30:31;;;;;;;20.4;5.1;;;;;;;;;;;;;
2024/03/31 07:32:57;;;;;;;17.1;4.2;;;;;;;;;;;;;
2024/03/31 07:35:22;;;;;;;14.4;3.6;;;;;;;;;;;;;
2024/03/31 07:37:47;;;;;;;15.5;4.1;;;;;;;;;;;;;
2024/03/31 07:40:12;;;;;;;19.6;4;;;;;;;;;;;;;
2024/03/31 07:42:37;;;;;;;18.4;4;;;;;;;;;;;;;
2024/03/31 07:45:02;;;;;;;14.4;3.7;;;;;;;;;;;;;
2024/03/31 07:47:27;;;;;;;15.7;3.8;;;;;;;;;;;;;
2024/03/31 07:49:52;;;;;;;19.6;3.5;;;;;;;;;;;;;
2024/03/31 07:52:18;;;;;;;16.4;3.1;;;;;;;;;;;;;
2024/03/31 07:54:44;;;;;;;13.4;3.2;;;;;;;;;;;;;
2024/03/31 07:57:08;;;;;;;16.8;3.6;;;;;;;;;;;;;
2024/03/31 07:59:33;;;;;;;16.3;3.4;;;;;;;;;;;;;
2024/03/31 08:01:58;;;;;;;15.4;3.1;;;;;;;;;;;;;
2024/03/31 08:04:23;;;;;;;16;4.2;;;;;;;;;;;;;
2024/03/31 08:06:48;;;;;;;12.5;3;;;;;;;;;;;;;
2024/03/31 08:09:13;;;;;;;12;2.1;;;;;;;;;;;;;
2024/03/31 08:11:38;;;;;;;11;2.7;;;;;;;;;;;;;
2024/03/31 08:14:04;;;;;;;13;2.8;;;;;;;;;;;;;
2024/03/31 08:16:29;;;;;;;7.6;1.9;;;;;;;;;;;;;
2024/03/31 08:18:54;;;;;;;6.1;1.4;;;;;;;;;;;;;
2024/03/31 08:21:19;;;;;;;4.8;1.6;;;;;;;;;;;;;
2024/03/31 08:23:44;;;;;;;7.1;1.8;;;;;;;;;;;;;
2024/03/31 08:26:09;;;;;;;5.7;1.3;;;;;;;;;;;;;
2024/03/31 08:28:34;;;;;;;4.7;1.4;;;;;;;;;;;;;
2024/03/31 08:31:00;;;;;;;6.9;1.7;;;;;;;;;;;;;
2024/03/31 08:33:24;;;;;;;5.5;1.2;;;;;;;;;;;;;
2024/03/31 08:35:50;;;;;;;6.1;1.7;;;;;;;;;;;;;
2024/03/31 08:38:16;;;;;;;6.5;1.3;;;;;;;;;;;;;
2024/03/31 08:40:40;;;;;;;6;1.7;;;;;;;;;;;;;
2024/03/31 08:43:06;;;;;;;3.9;0.9;;;;;;;;;;;;;
2024/03/31 08:45:30;;;;;;;6;1.1;;;;;;;;;;;;;
2024/03/31 08:47:55;;;;;;;2;0.9;;;;;;;;;;;;;
2024/03/31 08:50:21;;;;;;;1.9;0.7;;;;;;;;;;;;;
2024/03/31 08:52:46;;;;;;;1.9;0.7;;;;;;;;;;;;;
2024/03/31 08:55:10;;;;;;;2.2;0.8;;;;;;;;;;;;;
2024/03/31 08:57:36;;;;;;;4.3;0.9;;;;;;;;;;;;;
2024/03/31 09:00:01;;;;;;;2.8;0.6;;;;;;;;;;;;;
2024/03/31 09:02:26;;;;;;;3.6;0.8;;;;;;;;;;;;;
2024/03/31 09:04:52;;;;;;;4.5;0.9;;;;;;;;;;;;;
2024/03/31 09:07:20;;;;;;;3.6;1;;;;;;;;;;;;;
2024/03/31 09:09:41;;;;;;;2;0.5;;;;;;;;;;;;;
2024/03/31 09:12:06;;;;;;;3;1;;;;;;;;;;;;;
2024/03/31 09:14:31;;;;;;;3.3;0.8;;;;;;;;;;;;;
2024/03/31 09:16:56;;;;;;;1.5;0.6;;;;;;;;;;;;;
2024/03/31 09:19:22;;;;;;;2;0.6;;;;;;;;;;;;;
2024/03/31 09:21:47;;;;;;;4.1;0.9;;;;;;;;;;;;;
2024/03/31 09:24:12;;;;;;;2.9;0.8;;;;;;;;;;;;;
2024/03/31 09:26:37;;;;;;;5.3;0.8;;;;;;;;;;;;;
2024/03/31 09:29:02;;;;;;;2.9;0.9;;;;;;;;;;;;;
2024/03/31 09:31:28;;;;;;;4.3;1;;;;;;;;;;;;;
2024/03/31 09:33:53;;;;;;;4.3;1.1;;;;;;;;;;;;;
2024/03/31 09:36:18;;;;;;;7.7;1.1;;;;;;;;;;;;;
2024/03/31 09:38:43;;;;;;;3.4;0.8;;;;;;;;;;;;;
2024/03/31 09:41:10;;;;;;;5.9;1.1;;;;;;;;;;;;;
2024/03/31 09:43:34;;;;;;;3.3;1;;;;;;;;;;;;;
2024/03/31 09:45:58;;;;;;;7.9;1.5;;;;;;;;;;;;;
2024/03/31 09:48:45;;;;;;;5.2;1.3;;;;;;;;;;;;;
2024/03/31 09:51:10;;;;;;;5.5;1.5;;;;;;;;;;;;;
2024/03/31 09:53:38;;;;;;;6;1.6;;;;;;;;;;;;;
2024/03/31 09:56:01;;;;;;;7;1.4;;;;;;;;;;;;;
2024/03/31 09:58:28;;;;;;;4.1;1.3;;;;;;;;;;;;;
2024/03/31 10:00:57;;;;;;;13.1;1.9;;;;;;;;;;;;;
2024/03/31 10:03:18;;;;;;;6.6;1.6;;;;;;;;;;;;;
2024/03/31 10:05:44;;;;;;;6.7;1.2;;;;;;;;;;;;;
2024/03/31 10:08:09;;;;;;;7.8;1.3;;;;;;;;;;;;;
2024/03/31 10:10:34;;;;;;;7;1.1;;;;;;;;;;;;;
2024/03/31 10:12:59;;;;;;;6.7;1.3;;;;;;;;;;;;;
2024/03/31 10:15:24;;;;;;;6.2;1.1;;;;;;;;;;;;;
2024/03/31 10:18:33;;;;;;;5.8;1.3;;;;;;;;;;;;;
2024/03/31 10:20:29;;;;;;;6.6;1.7;;;;;;;;;;;;;
2024/03/31 10:22:57;;;;;;;6.1;1.3;;;;;;;;;;;;;
2024/03/31 10:25:28;;;;;;;7.8;1.4;;;;;;;;;;;;;
2024/03/31 10:27:47;;;;;;;6.7;1.6;;;;;;;;;;;;;
2024/03/31 10:30:34;;;;;;;8.6;2.7;;;;;;;;;;;;;
2024/03/31 10:33:20;;;;;;;5.3;1.1;;;;;;;;;;;;;
2024/03/31 10:35:59;;;;;;;6.5;1.7;;;;;;;;;;;;;
2024/03/31 10:38:11;;;;;;;10.3;2;;;;;;;;;;;;;
2024/03/31 10:42:28;;;;;;;7.5;1.6;;;;;;;;;;;;;
2024/03/31 10:43:03;;;;;;;7.7;1.4;;;;;;;;;;;;;
2024/03/31 10:45:22;;;;;;;6.1;1.2;;;;;;;;;;;;;
2024/03/31 10:47:47;;;;;;;5.1;1.3;;;;;;;;;;;;;
2024/03/31 10:50:12;;;;;;;5.7;1.2;;;;;;;;;;;;;
2024/03/31 10:53:40;;;;;;;9.2;1.4;;;;;;;;;;;;;
2024/03/31 10:56:00;;;;;;;3.9;1.3;;;;;;;;;;;;;
2024/03/31 10:58:24;;;;;;;4;1.4;;;;;;;;;;;;;
2024/03/31 11:00:56;;;;;;;7.3;1;;;;;;;;;;;;;
2024/03/31 11:03:30;;;;;;;6.4;1.7;;;;;;;;;;;;;
2024/03/31 11:06:06;;;;;;;10.7;1.4;;;;;;;;;;;;;
2024/03/31 11:08:42;;;;;;;3.4;1.1;;;;;;;;;;;;;
2024/03/31 11:11:18;;;;;;;3.9;1.1;;;;;;;;;;;;;
2024/03/31 11:15:01;;;;;;;5.7;1.1;;;;;;;;;;;;;
2024/03/31 11:17:17;;;;;;;2.5;0.6;;;;;;;;;;;;;
2024/03/31 11:19:42;;;;;;;3.4;0.8;;;;;;;;;;;;;
2024/03/31 11:23:17;;;;;;;;;;;;;;;;;;;;;
2024/03/31 11:24:42;;;;;;;4.6;1.1;;;;;;;;;;;;;
2024/03/31 11:27:06;;;;;;;5.9;0.8;;;;;;;;;;;;;
2024/03/31 11:29:31;;;;;;;4.6;0.8;;;;;;;;;;;;;
2024/03/31 11:31:57;;;;;;;4.9;1;;;;;;;;;;;;;
2024/03/31 11:34:21;;;;;;;8.4;0.9;;;;;;;;;;;;;
2024/03/31 11:36:47;;;;;;;3;1.1;;;;;;;;;;;;;
2024/03/31 11:39:12;;;;;;;1.8;0.6;;;;;;;;;;;;;
2024/03/31 11:41:37;;;;;;;2.4;0.8;;;;;;;;;;;;;
2024/03/31 11:44:02;;;;;;;3.3;0.8;;;;;;;;;;;;;
2024/03/31 11:46:27;;;;;;;5.8;0.9;;;;;;;;;;;;;
2024/03/31 11:48:52;;;;;;;1.8;0.5;;;;;;;;;;;;;
2024/03/31 11:51:17;;;;;;;3.4;0.8;;;;;;;;;;;;;
2024/03/31 11:53:42;;;;;;;3.3;0.6;;;;;;;;;;;;;
2024/03/31 11:56:08;;;;;;;5.3;0.7;;;;;;;;;;;;;
2024/03/31 11:58:33;;;;;;;5;0.7;;;;;;;;;;;;;
2024/03/31 12:00:58;;;;;;;6.7;0.7;;;;;;;;;;;;;
2024/03/31 12:03:23;;;;;;;1.8;0.4;;;;;;;;;;;;;
2024/03/31 12:05:48;;;;;;;3.5;0.9;;;;;;;;;;;;;
2024/03/31 12:08:13;;;;;;;1.5;0.4;;;;;;;;;;;;;
2024/03/31 12:10:38;;;;;;;1.1;0.2;;;;;;;;;;;;;
2024/03/31 12:13:03;;;;;;;3;0.7;;;;;;;;;;;;;
2024/03/31 12:15:28;;;;;;;6.6;1;;;;;;;;;;;;;
2024/03/31 12:17:53;;;;;;;1.7;0.4;;;;;;;;;;;;;
2024/03/31 12:20:19;;;;;;;3.2;0.4;;;;;;;;;;;;;
2024/03/31 12:22:44;;;;;;;29.9;1.9;;;;;;;;;;;;;
2024/03/31 12:25:10;;;;;;;3;0.8;;;;;;;;;;;;;
2024/03/31 12:27:35;;;;;;;3;0.3;;;;;;;;;;;;;
2024/03/31 12:30:00;;;;;;;0.9;0.3;;;;;;;;;;;;;
2024/03/31 12:32:25;;;;;;;2;0.3;;;;;;;;;;;;;
2024/03/31 12:34:50;;;;;;;2;0.3;;;;;;;;;;;;;
2024/03/31 12:37:15;;;;;;;0.4;0.2;;;;;;;;;;;;;
2024/03/31 12:39:40;;;;;;;1;0.2;;;;;;;;;;;;;
2024/03/31 12:42:05;;;;;;;1;0.4;;;;;;;;;;;;;
2024/03/31 12:44:31;;;;;;;1.3;0.3;;;;;;;;;;;;;
2024/03/31 12:46:55;;;;;;;0.5;0.2;;;;;;;;;;;;;
2024/03/31 12:49:21;;;;;;;1;0.2;;;;;;;;;;;;;
2024/03/31 12:51:46;;;;;;;0.4;0.2;;;;;;;;;;;;;
2024/03/31 12:54:11;;;;;;;1.1;0.2;;;;;;;;;;;;;
2024/03/31 12:56:36;;;;;;;0.8;0.2;;;;;;;;;;;;;
2024/03/31 12:59:01;;;;;;;1.2;0.1;;;;;;;;;;;;;
2024/03/31 13:01:26;;;;;;;1.6;0.2;;;;;;;;;;;;;
2024/03/31 13:03:52;;;;;;;1;0.2;;;;;;;;;;;;;
2024/03/31 13:06:17;;;;;;;0.7;0.2;;;;;;;;;;;;;
2024/03/31 13:08:42;;;;;;;2.1;0.3;;;;;;;;;;;;;
2024/03/31 13:11:07;;;;;;;2.4;0.6;;;;;;;;;;;;;
2024/03/31 13:13:32;;;;;;;0.3;0.1;;;;;;;;;;;;;
2024/03/31 13:15:57;;;;;;;0.4;0.4;;;;;;;;;;;;;
2024/03/31 13:18:23;;;;;;;0.1;0.1;;;;;;;;;;;;;
2024/03/31 13:20:48;;;;;;;0.3;0.1;;;;;;;;;;;;;
2024/03/31 13:23:13;;;;;;;28.7;2.7;;;;;;;;;;;;;
2024/03/31 13:25:38;;;;;;;2.2;0.1;;;;;;;;;;;;;
2024/03/31 13:28:04;;;;;;;0.2;0.1;;;;;;;;;;;;;
2024/03/31 13:30:28;;;;;;;0.2;0.1;;;;;;;;;;;;;
2024/03/31 13:32:53;;;;;;;0.9;0.4;;;;;;;;;;;;;
2024/03/31 13:35:18;;;;;;;0.1;0.1;;;;;;;;;;;;;
2024/03/31 13:37:43;;;;;;;0.1;0.1;;;;;;;;;;;;;
2024/03/31 13:40:10;;;;;;;0;0;;;;;;;;;;;;;
2024/03/31 13:42:34;;;;;;;0.4;0.2;;;;;;;;;;;;;
2024/03/31 13:44:58;;;;;;;0.8;0.1;;;;;;;;;;;;;
2024/03/31 13:47:24;;;;;;;0.1;0.1;;;;;;;;;;;;;
2024/03/31 13:49:49;;;;;;;0.7;0.1;;;;;;;;;;;;;
2024/03/31 13:52:14;;;;;;;0.1;0.1;;;;;;;;;;;;;
2024/03/31 13:54:39;;;;;;;0.8;0.2;;;;;;;;;;;;;
2024/03/31 13:57:04;;;;;;;0.7;0.4;;;;;;;;;;;;;
2024/03/31 13:59:29;;;;;;;0.3;0.2;;;;;;;;;;;;;
2024/03/31 14:01:54;;;;;;;0.1;0.1;;;;;;;;;;;;;
2024/03/31 14:04:19;;;;;;;0.2;0.1;;;;;;;;;;;;;
2024/03/31 14:06:44;;;;;;;0.1;0.1;;;;;;;;;;;;;
2024/03/31 14:09:10;;;;;;;0.1;0.1;;;;;;;;;;;;;
2024/03/31 14:11:34;;;;;;;0.5;0.2;;;;;;;;;;;;;
2024/03/31 14:14:00;;;;;;;0.2;0.2;;;;;;;;;;;;;
2024/03/31 14:16:25;;;;;;;0.1;0.1;;;;;;;;;;;;;
2024/03/31 14:18:50;;;;;;;0;0;;;;;;;;;;;;;
2024/03/31 14:21:15;;;;;;;0.4;0.2;;;;;;;;;;;;;
2024/03/31 14:23:40;;;;;;;0.1;0.1;;;;;;;;;;;;;
2024/03/31 14:26:09;;;;;;;0.3;0.2;;;;;;;;;;;;;
2024/03/31 14:28:31;;;;;;;0.6;0.1;;;;;;;;;;;;;
2024/03/31 14:30:59;;;;;;;1.5;0.1;;;;;;;;;;;;;
2024/03/31 14:33:21;;;;;;;0.1;0.1;;;;;;;;;;;;;
2024/03/31 14:35:46;;;;;;;0.2;0.2;;;;;;;;;;;;;
2024/03/31 14:38:11;;;;;;;0.7;0.1;;;;;;;;;;;;;
2024/03/31 14:40:36;;;;;;;0.2;0.1;;;;;;;;;;;;;
2024/03/31 14:43:01;;;;;;;1.1;0.3;;;;;;;;;;;;;
2024/03/31 14:45:26;;;;;;;0.9;0.1;;;;;;;;;;;;;
2024/03/31 14:47:51;;;;;;;0.1;0.1;;;;;;;;;;;;;
2024/03/31 14:50:16;;;;;;;0.1;0.1;;;;;;;;;;;;;
2024/03/31 14:52:41;;;;;;;0.5;0.2;;;;;;;;;;;;;
2024/03/31 14:55:07;;;;;;;1.8;0.2;;;;;;;;;;;;;
2024/03/31 14:57:32;;;;;;;0.1;0.1;;;;;;;;;;;;;
2024/03/31 15:00:02;;;;;;;0.2;0.2;;;;;;;;;;;;;
2024/03/31 15:02:22;;;;;;;0.5;0.5;;;;;;;;;;;;;
2024/03/31 15:04:48;;;;;;;0.1;0.1;;;;;;;;;;;;;
2024/03/31 15:07:12;;;;;;;0.3;0.1;;;;;;;;;;;;;
2024/03/31 15:09:38;;;;;;;0.7;0.3;;;;;;;;;;;;;
2024/03/31 15:12:04;;;;;;;0.3;0.2;;;;;;;;;;;;;
2024/03/31 15:14:28;;;;;;;0.1;0.1;;;;;;;;;;;;;
2024/03/31 15:16:53;;;;;;;0.1;0.1;;;;;;;;;;;;;
2024/03/31 15:19:18;;;;;;;0.5;0.2;;;;;;;;;;;;;
2024/03/31 15:21:43;;;;;;;0.1;0.1;;;;;;;;;;;;;
2024/03/31 15:24:09;;;;;;;0.2;0.1;;;;;;;;;;;;;
2024/03/31 15:26:34;;;;;;;0.1;0.1;;;;;;;;;;;;;
2024/03/31 15:28:59;;;;;;;1.7;0.5;;;;;;;;;;;;;
2024/03/31 15:31:24;;;;;;;0.5;0.2;;;;;;;;;;;;;
2024/03/31 15:33:49;;;;;;;0.2;0.2;;;;;;;;;;;;;
2024/03/31 15:36:15;;;;;;;0.7;0.2;;;;;;;;;;;;;
2024/03/31 15:38:40;;;;;;;0.5;0.2;;;;;;;;;;;;;
2024/03/31 15:41:06;;;;;;;0.6;0.3;;;;;;;;;;;;;
2024/03/31 15:43:30;;;;;;;0.4;0.4;;;;;;;;;;;;;
2024/03/31 15:45:55;;;;;;;0.6;0.2;;;;;;;;;;;;;
2024/03/31 15:48:22;;;;;;;0.2;0.2;;;;;;;;;;;;;
2024/03/31 15:50:45;;;;;;;1;0.3;;;;;;;;;;;;;
2024/03/31 15:53:10;;;;;;;0.3;0.2;;;;;;;;;;;;;
2024/03/31 15:55:35;;;;;;;0.3;0.3;;;;;;;;;;;;;
2024/03/31 15:58:01;;;;;;;0.1;0.1;;;;;;;;;;;;;
2024/03/31 16:00:26;;;;;;;0.3;0.3;;;;;;;;;;;;;
2024/03/31 16:02:51;;;;;;;0.1;0.1;;;;;;;;;;;;;
2024/03/31 16:05:16;;;;;;;1.3;0.3;;;;;;;;;;;;;
2024/03/31 16:07:41;;;;;;;0.4;0.3;;;;;;;;;;;;;
2024/03/31 16:10:06;;;;;;;0.4;0.3;;;;;;;;;;;;;
2024/03/31 16:12:31;;;;;;;0.4;0.2;;;;;;;;;;;;;
2024/03/31 16:14:56;;;;;;;0.4;0.2;;;;;;;;;;;;;
2024/03/31 16:17:21;;;;;;;0.3;0.1;;;;;;;;;;;;;
2024/03/31 16:19:46;;;;;;;0.8;0.2;;;;;;;;;;;;;
2024/03/31 16:22:12;;;;;;;0.2;0.1;;;;;;;;;;;;;
2024/03/31 16:24:37;;;;;;;0.3;0.2;;;;;;;;;;;;;
2024/03/31 16:27:02;;;;;;;0.3;0.3;;;;;;;;;;;;;
2024/03/31 16:29:27;;;;;;;0.1;0.1;;;;;;;;;;;;;
2024/03/31 16:31:52;;;;;;;0.5;0.3;;;;;;;;;;;;;
2024/03/31 16:34:19;;;;;;;1.5;0.5;;;;;;;;;;;;;
2024/03/31 16:36:43;;;;;;;0.4;0.2;;;;;;;;;;;;;
2024/03/31 16:39:07;;;;;;;0.2;0.2;;;;;;;;;;;;;
2024/03/31 16:41:32;;;;;;;0.3;0.2;;;;;;;;;;;;;
2024/03/31 16:43:57;;;;;;;0.1;0.1;;;;;;;;;;;;;
2024/03/31 16:46:22;;;;;;;0.1;0.1;;;;;;;;;;;;;
2024/03/31 16:48:48;;;;;;;0.7;0.3;;;;;;;;;;;;;
2024/03/31 16:51:13;;;;;;;0.4;0.2;;;;;;;;;;;;;
2024/03/31 16:53:38;;;;;;;1.4;0.2;;;;;;;;;;;;;
2024/03/31 16:56:03;;;;;;;0.7;0.3;;;;;;;;;;;;;
2024/03/31 16:58:28;;;;;;;0.3;0.3;;;;;;;;;;;;;
2024/03/31 17:00:53;;;;;;;0.4;0.3;;;;;;;;;;;;;
2024/03/31 17:03:18;;;;;;;0.3;0.3;;;;;;;;;;;;;
2024/03/31 17:05:44;;;;;;;0.3;0.3;;;;;;;;;;;;;
2024/03/31 17:08:08;;;;;;;0.3;0.3;;;;;;;;;;;;;
2024/03/31 17:10:33;;;;;;;1;0.6;;;;;;;;;;;;;
2024/03/31 17:12:58;;;;;;;0.9;0.8;;;;;;;;;;;;;
2024/03/31 17:15:24;;;;;;;3;1.2;;;;;;;;;;;;;
2024/03/31 17:17:49;;;;;;;1.8;0.7;;;;;;;;;;;;;
2024/03/31 17:20:14;;;;;;;1.5;0.8;;;;;;;;;;;;;
2024/03/31 17:22:39;;;;;;;0.5;0.5;;;;;;;;;;;;;
2024/03/31 17:25:05;;;;;;;0.4;0.3;;;;;;;;;;;;;
2024/03/31 17:27:29;;;;;;;2.3;1;;;;;;;;;;;;;
2024/03/31 17:29:55;;;;;;;1.8;0.5;;;;;;;;;;;;;
2024/03/31 17:32:20;;;;;;;2.3;0.9;;;;;;;;;;;;;
2024/03/31 17:34:46;;;;;;;2.1;1.1;;;;;;;;;;;;;
2024/03/31 17:37:10;;;;;;;0.7;0.6;;;;;;;;;;;;;
2024/03/31 17:39:35;;;;;;;1;0.6;;;;;;;;;;;;;
2024/03/31 17:42:01;;;;;;;1;0.5;;;;;;;;;;;;;
2024/03/31 17:44:26;;;;;;;0.8;0.6;;;;;;;;;;;;;
2024/03/31 17:46:50;;;;;;;1.7;0.4;;;;;;;;;;;;;
2024/03/31 17:49:15;;;;;;;0.8;0.4;;;;;;;;;;;;;
2024/03/31 17:51:41;;;;;;;8.7;1.3;;;;;;;;;;;;;
2024/03/31 17:54:06;;;;;;;3.1;1.6;;;;;;;;;;;;;
2024/03/31 17:56:31;;;;;;;1.2;0.8;;;;;;;;;;;;;
2024/03/31 17:58:58;;;;;;;3.4;1.1;;;;;;;;;;;;;
2024/03/31 18:01:21;;;;;;;1.3;0.7;;;;;;;;;;;;;
2024/03/31 18:03:46;;;;;;;4.3;1;;;;;;;;;;;;;
2024/03/31 18:06:11;;;;;;;3.8;0.8;;;;;;;;;;;;;
2024/03/31 18:08:36;;;;;;;3.2;2.2;;;;;;;;;;;;;
2024/03/31 18:11:01;;;;;;;2;1.4;;;;;;;;;;;;;
2024/03/31 18:13:27;;;;;;;1.6;0.8;;;;;;;;;;;;;
2024/03/31 18:15:52;;;;;;;1.8;1;;;;;;;;;;;;;
2024/03/31 18:18:17;;;;;;;2.1;0.8;;;;;;;;;;;;;
2024/03/31 18:20:42;;;;;;;2.6;1.2;;;;;;;;;;;;;
2024/03/31 18:23:08;;;;;;;1.7;0.5;;;;;;;;;;;;;
2024/03/31 18:25:32;;;;;;;2.4;1.1;;;;;;;;;;;;;
2024/03/31 18:27:57;;;;;;;2;1;;;;;;;;;;;;;
2024/03/31 18:30:22;;;;;;;2.5;1.1;;;;;;;;;;;;;
2024/03/31 18:32:47;;;;;;;1.5;0.7;;;;;;;;;;;;;
2024/03/31 18:35:13;;;;;;;2.8;0.6;;;;;;;;;;;;;
2024/03/31 18:37:39;;;;;;;2.7;1.3;;;;;;;;;;;;;
2024/03/31 18:40:04;;;;;;;3.1;1.5;;;;;;;;;;;;;
2024/03/31 18:42:28;;;;;;;2.6;1;;;;;;;;;;;;;
2024/03/31 18:44:53;;;;;;;1.9;1.3;;;;;;;;;;;;;
2024/03/31 18:47:18;;;;;;;3.4;0.8;;;;;;;;;;;;;
2024/03/31 18:49:43;;;;;;;1.7;1.1;;;;;;;;;;;;;
2024/03/31 18:52:08;;;;;;;3.9;1.6;;;;;;;;;;;;;
2024/03/31 18:54:34;;;;;;;4.4;1.6;;;;;;;;;;;;;
2024/03/31 18:56:58;;;;;;;3.3;1.5;;;;;;;;;;;;;
2024/03/31 18:59:24;;;;;;;2.7;1.3;;;;;;;;;;;;;
2024/03/31 19:01:49;;;;;;;3.4;1.3;;;;;;;;;;;;;
2024/03/31 19:04:13;;;;;;;3.9;1.2;;;;;;;;;;;;;
2024/03/31 19:06:39;;;;;;;4;1;;;;;;;;;;;;;
2024/03/31 19:09:04;;;;;;;1.9;1.1;;;;;;;;;;;;;
2024/03/31 19:11:29;;;;;;;2.1;0.8;;;;;;;;;;;;;
2024/03/31 19:13:54;;;;;;;3.1;0.7;;;;;;;;;;;;;
2024/03/31 19:16:20;;;;;;;2;1.1;;;;;;;;;;;;;
2024/03/31 19:18:44;;;;;;;2.5;1.1;;;;;;;;;;;;;
2024/03/31 19:21:09;;;;;;;5.4;1.3;;;;;;;;;;;;;
2024/03/31 19:23:35;;;;;;;2.2;1.3;;;;;;;;;;;;;
2024/03/31 19:26:00;;;;;;;3.4;1.1;;;;;;;;;;;;;
2024/03/31 19:28:26;;;;;;;6.6;4.2;;;;;;;;;;;;;
2024/03/31 19:30:50;;;;;;;17;10.5;;;;;;;;;;;;;
2024/03/31 19:33:15;;;;;;;4.5;1.7;;;;;;;;;;;;;
2024/03/31 19:35:40;;;;;;;4.7;1.5;;;;;;;;;;;;;
2024/03/31 19:38:05;;;;;;;4.9;2.2;;;;;;;;;;;;;
2024/03/31 19:40:31;;;;;;;3.8;2.5;;;;;;;;;;;;;
2024/03/31 19:42:56;;;;;;;8.4;2.3;;;;;;;;;;;;;
2024/03/31 19:45:21;;;;;;;6.2;2.5;;;;;;;;;;;;;
2024/03/31 19:47:46;;;;;;;3.8;2.2;;;;;;;;;;;;;
2024/03/31 19:50:11;;;;;;;3.3;1.4;;;;;;;;;;;;;
2024/03/31 19:52:36;;;;;;;5;1.4;;;;;;;;;;;;;
2024/03/31 19:55:01;;;;;;;4.6;2;;;;;;;;;;;;;
2024/03/31 19:57:28;;;;;;;4.9;2.8;;;;;;;;;;;;;
2024/03/31 19:59:52;;;;;;;5;2.8;;;;;;;;;;;;;
2024/03/31 20:02:17;;;;;;;6.6;2.8;;;;;;;;;;;;;
2024/03/31 20:04:43;;;;;;;6.6;3.8;;;;;;;;;;;;;
2024/03/31 20:07:07;;;;;;;5.9;3.2;;;;;;;;;;;;;
2024/03/31 20:09:33;;;;;;;5.6;2.9;;;;;;;;;;;;;
2024/03/31 20:11:57;;;;;;;5.2;3;;;;;;;;;;;;;
2024/03/31 20:14:22;;;;;;;5.4;3;;;;;;;;;;;;;
2024/03/31 20:16:47;;;;;;;6.2;2.5;;;;;;;;;;;;;
2024/03/31 20:19:12;;;;;;;5.4;1.7;;;;;;;;;;;;;
2024/03/31 20:21:37;;;;;;;4.8;2.1;;;;;;;;;;;;;
2024/03/31 20:24:03;;;;;;;6.1;2.6;;;;;;;;;;;;;
2024/03/31 20:26:28;;;;;;;8.5;3.5;;;;;;;;;;;;;
2024/03/31 20:28:53;;;;;;;6;2.6;;;;;;;;;;;;;